Main page
METAR-TAF:

METAR-TAF

Airports :

Vanua Lava Airport

Vanua Lava, Vanuatu

latitude: 13-51-06S, longitude: 167-32-13E, elevation: 2 m

Current weather observation

The report was made 1 hour and 48 minutes ago, at 01:00 UTC
Wind 5 kt from the East/Southeast
Temperature 30°C
Humidity 84%
Pressure 1004 hPa
Visibility 10 km or more
Broken clouds at a height of 2000 ft

METAR: NVSC 250100Z 11005KT 9999 BKN020 30/27 Q1004

Time: 13:48 (02:48 UTC)

Forecast

The report was made 4 hours and 28 minutes ago, at 22:20 UTC
Forecast valid from 25 at 00 UTC to 25 at 24 UTC
Wind 5 kt from the Southeast
Visibility: 9000 m
Broken clouds at a height of 2000 ft
Overcast at a height of 4000 ft
Broken clouds at a height of 1800 ft
light rain showers

TAF: NVSC 242220Z 2500/2524 14005KT 9999 BKN020 OVC040 INTER 2500/2506 9000 -SHRA BKN018

Weather observations and forecasts of more than 4000 airports (METAR and TAF reports).

The available stations are represented by yellow and red dots on the map.

Hover mouse over dot to see the name of the station.

Then click to see weather observations and forecasts.

To change the map : click on the green buttons with a black cross to zoom in, on the green button with a dash to zoom out, or on the green arrows for adjacent maps.


METAR-TAF: